createdAt,value
2022-09-01T00:00:49.029Z,16.06
2022-09-01T00:03:19.704Z,15.95
2022-09-01T00:05:46.271Z,16.07
2022-09-01T00:08:16.290Z,15.96
2022-09-01T00:10:45.181Z,15.87
2022-09-01T00:13:11.534Z,15.86
2022-09-01T00:15:37.938Z,15.74
2022-09-01T00:18:04.497Z,15.70
2022-09-01T00:20:30.989Z,15.58
2022-09-01T00:22:57.522Z,15.51
2022-09-01T00:25:24.744Z,15.39
2022-09-01T00:27:51.456Z,15.43
2022-09-01T00:30:21.674Z,15.30
2022-09-01T00:32:48.110Z,15.30
2022-09-01T00:35:16.553Z,15.18
2022-09-01T00:37:42.929Z,15.36
2022-09-01T00:40:10.525Z,15.40
2022-09-01T00:42:37.659Z,15.41
2022-09-01T00:45:04.725Z,15.30
2022-09-01T00:47:31.077Z,15.28
2022-09-01T00:49:58.127Z,15.15
2022-09-01T00:52:24.482Z,15.07
2022-09-01T00:54:53.648Z,15.08
2022-09-01T00:57:20.604Z,15.07
2022-09-01T00:59:49.960Z,15.15
2022-09-01T01:02:16.720Z,15.24
2022-09-01T01:04:43.739Z,15.12
2022-09-01T01:07:10.813Z,15.15
2022-09-01T01:09:40.244Z,15.49
2022-09-01T01:12:07.443Z,15.31
2022-09-01T01:14:34.801Z,15.33
2022-09-01T01:17:01.249Z,15.35
2022-09-01T01:19:55.508Z,15.49
2022-09-01T01:22:58.477Z,15.59
2022-09-01T01:25:25.484Z,15.73
2022-09-01T01:27:52.058Z,15.83
2022-09-01T01:30:20.784Z,15.87
2022-09-01T01:32:49.390Z,16.04
2022-09-01T01:35:16.793Z,15.92
2022-09-01T01:37:49.042Z,15.93
2022-09-01T01:40:17.037Z,15.82
2022-09-01T01:42:47.917Z,15.90
2022-09-01T01:45:17.165Z,15.91
2022-09-01T01:47:48.014Z,15.93
2022-09-01T01:50:14.604Z,15.84
2022-09-01T01:52:41.914Z,15.99
2022-09-01T01:55:12.543Z,15.94
2022-09-01T01:57:40.065Z,15.88
2022-09-01T02:00:07.654Z,15.98
2022-09-01T02:02:34.071Z,15.86
2022-09-01T02:05:00.528Z,15.75
2022-09-01T02:07:27.432Z,15.43
2022-09-01T02:09:57.904Z,15.34
2022-09-01T02:12:25.182Z,15.32
2022-09-01T02:14:54.716Z,15.10
2022-09-01T02:17:21.573Z,14.96
2022-09-01T02:19:48.458Z,14.85
2022-09-01T02:22:14.961Z,14.61
2022-09-01T02:24:46.439Z,14.50
2022-09-01T02:27:12.907Z,14.44
2022-09-01T02:29:43.182Z,14.49
2022-09-01T02:32:11.596Z,14.50
2022-09-01T02:34:39.933Z,14.19
2022-09-01T02:37:06.314Z,13.98
2022-09-01T02:39:33.462Z,14.00
2022-09-01T02:42:01.259Z,13.72
2022-09-01T02:44:29.089Z,14.05
2022-09-01T02:46:55.958Z,13.77
2022-09-01T02:49:25.724Z,13.73
2022-09-01T02:51:53.946Z,13.86
2022-09-01T02:54:24.536Z,13.68
2022-09-01T02:56:54.350Z,13.62
2022-09-01T02:59:21.944Z,13.54
2022-09-01T03:01:49.785Z,13.45
2022-09-01T03:04:17.488Z,13.48
2022-09-01T03:06:44.238Z,13.26
2022-09-01T03:09:13.523Z,13.31
2022-09-01T03:11:40.951Z,13.49
2022-09-01T03:14:08.037Z,13.29
2022-09-01T03:16:34.684Z,13.45
2022-09-01T03:19:03.178Z,13.40
2022-09-01T03:21:32.024Z,13.63
2022-09-01T03:23:59.326Z,13.38
2022-09-01T03:26:25.746Z,13.38
2022-09-01T03:28:52.267Z,13.65
2022-09-01T03:31:19.845Z,13.54
2022-09-01T03:33:46.399Z,13.71
2022-09-01T03:36:19.243Z,13.68
2022-09-01T03:38:48.763Z,13.73
2022-09-01T03:41:17.742Z,13.68
2022-09-01T03:43:47.073Z,13.60
2022-09-01T03:46:20.123Z,13.59
2022-09-01T03:48:52.062Z,13.21
2022-09-01T03:51:18.994Z,13.26
2022-09-01T03:53:45.998Z,13.05
2022-09-01T03:56:13.957Z,12.98
2022-09-01T03:58:41.736Z,13.04
2022-09-01T04:01:08.439Z,12.96
2022-09-01T04:03:41.144Z,12.95
2022-09-01T04:06:09.164Z,13.01
2022-09-01T04:08:36.249Z,12.75
2022-09-01T04:11:10.794Z,12.68
2022-09-01T04:13:39.204Z,12.78
2022-09-01T04:16:26.005Z,12.78
2022-09-01T04:18:52.428Z,13.07
2022-09-01T04:21:20.069Z,12.94
2022-09-01T04:23:47.029Z,12.93
2022-09-01T04:26:20.309Z,12.87
2022-09-01T04:28:48.267Z,12.94
2022-09-01T04:31:17.729Z,12.83
2022-09-01T04:33:46.629Z,13.06
2022-09-01T04:36:19.553Z,13.09
2022-09-01T04:38:47.086Z,12.96
2022-09-01T04:41:17.698Z,13.03
2022-09-01T04:43:45.296Z,13.18
2022-09-01T04:46:14.321Z,13.14
2022-09-01T04:48:46.096Z,13.27
2022-09-01T04:51:13.122Z,13.11
2022-09-01T04:53:40.291Z,13.37
2022-09-01T04:56:07.514Z,13.42
2022-09-01T04:58:34.113Z,13.38
2022-09-01T05:01:06.276Z,13.25
2022-09-01T05:03:32.683Z,13.33
2022-09-01T05:06:03.774Z,13.41
2022-09-01T05:08:35.113Z,13.43
2022-09-01T05:11:06.174Z,13.44
2022-09-01T05:13:32.804Z,13.51
2022-09-01T05:16:01.892Z,13.57
2022-09-01T05:18:28.745Z,13.65
2022-09-01T05:20:55.565Z,13.70
2022-09-01T05:23:22.025Z,13.71
2022-09-01T05:25:49.753Z,13.80
2022-09-01T05:28:17.871Z,13.83
2022-09-01T05:30:45.699Z,13.85
2022-09-01T05:33:19.891Z,13.89
2022-09-01T05:35:55.818Z,13.89
2022-09-01T05:38:22.984Z,13.95
2022-09-01T05:41:00.691Z,13.92
2022-09-01T05:43:27.752Z,13.99
2022-09-01T05:46:06.133Z,13.98
2022-09-01T05:48:39.760Z,13.95
2022-09-01T05:51:17.633Z,13.78
2022-09-01T05:53:56.427Z,13.79
2022-09-01T05:56:24.050Z,13.88
2022-09-01T06:01:40.942Z,14.01
2022-09-01T06:04:08.515Z,13.99
2022-09-01T06:06:55.090Z,14.01
2022-09-01T06:09:24.500Z,14.14
2022-09-01T06:11:51.858Z,13.67
2022-09-01T06:14:18.232Z,13.61
2022-09-01T06:16:45.827Z,13.83
2022-09-01T06:19:12.635Z,14.11
2022-09-01T06:21:39.772Z,13.87
2022-09-01T06:24:07.655Z,14.08
2022-09-01T06:26:35.874Z,13.82
2022-09-01T06:29:04.662Z,14.15
2022-09-01T06:31:35.125Z,14.31
2022-09-01T06:34:03.189Z,14.52
2022-09-01T06:36:35.080Z,14.38
2022-09-01T06:39:01.614Z,14.39
2022-09-01T06:41:28.549Z,14.57
2022-09-01T06:43:55.275Z,14.56
2022-09-01T06:46:23.662Z,14.43
2022-09-01T06:48:50.386Z,14.51
2022-09-01T06:51:21.999Z,14.65
2022-09-01T06:53:56.412Z,14.77
2022-09-01T06:56:24.175Z,14.44
2022-09-01T06:58:52.321Z,14.52
2022-09-01T07:01:20.323Z,14.70
2022-09-01T07:03:48.058Z,14.89
2022-09-01T07:16:29.737Z,15.44
2022-09-01T07:17:23.250Z,15.56
2022-09-01T07:19:49.911Z,15.75
2022-09-01T07:25:12.000Z,15.82
2022-09-01T07:27:50.387Z,15.94
2022-09-01T07:30:18.982Z,15.98
2022-09-01T07:32:50.508Z,16.16
2022-09-01T07:35:21.145Z,16.19
2022-09-01T07:38:47.501Z,16.23
2022-09-01T07:43:29.805Z,16.33
2022-09-01T07:46:00.483Z,16.45
2022-09-01T07:48:36.711Z,16.49
2022-09-01T07:54:05.610Z,16.56
2022-09-01T07:56:34.269Z,16.65
2022-09-01T07:59:03.056Z,16.69
2022-09-01T08:01:29.523Z,16.74
2022-09-01T08:03:57.635Z,16.76
2022-09-01T08:06:27.851Z,16.74
2022-09-01T08:08:56.995Z,16.93
2022-09-01T08:11:58.169Z,16.90
2022-09-01T08:14:11.828Z,17.02
2022-09-01T08:16:40.071Z,16.92
2022-09-01T08:19:18.577Z,16.98
2022-09-01T08:21:45.034Z,17.10
2022-09-01T08:24:11.394Z,17.12
2022-09-01T08:26:37.811Z,17.15
2022-09-01T08:29:04.963Z,17.10
2022-09-01T08:31:31.417Z,17.19
2022-09-01T08:33:58.961Z,17.29
2022-09-01T08:36:26.053Z,17.25
2022-09-01T08:38:52.966Z,17.38
2022-09-01T08:41:19.359Z,17.32
2022-09-01T08:44:06.477Z,17.34
2022-09-01T08:46:37.569Z,17.44
2022-09-01T08:49:24.779Z,17.49
2022-09-01T08:52:10.710Z,17.54
2022-09-01T08:54:42.601Z,17.62
2022-09-01T08:57:18.351Z,17.67
2022-09-01T08:59:44.825Z,17.75
2022-09-01T09:02:12.038Z,17.84
2022-09-01T09:04:38.548Z,17.84
2022-09-01T09:07:10.637Z,17.91
2022-09-01T09:10:02.683Z,17.99
2022-09-01T09:12:29.077Z,17.89
2022-09-01T09:15:04.371Z,18.09
2022-09-01T09:17:35.295Z,18.07
2022-09-01T09:20:02.110Z,18.09
2022-09-01T09:22:28.610Z,18.10
2022-09-01T09:25:00.130Z,18.21
2022-09-01T09:27:37.468Z,18.20
2022-09-01T09:30:09.584Z,18.31
2022-09-01T09:33:11.739Z,18.40
2022-09-01T09:35:33.326Z,18.17
2022-09-01T09:38:44.408Z,18.09
2022-09-01T09:41:18.859Z,18.09
2022-09-01T09:43:58.401Z,18.05
2022-09-01T09:46:31.568Z,18.16
2022-09-01T09:49:13.003Z,18.05
2022-09-01T09:51:40.807Z,18.16
2022-09-01T09:54:42.452Z,18.11
2022-09-01T09:57:08.829Z,18.08
2022-09-01T10:00:00.740Z,17.94
2022-09-01T10:02:31.869Z,17.95
2022-09-01T10:04:59.440Z,18.08
2022-09-01T10:07:33.818Z,18.04
2022-09-01T10:10:02.218Z,18.01
2022-09-01T10:12:29.736Z,18.01
2022-09-01T10:15:12.596Z,18.06
2022-09-01T10:17:43.634Z,18.00
2022-09-01T10:20:14.965Z,18.00
2022-09-01T10:22:41.498Z,17.91
2022-09-01T10:25:10.382Z,17.91
2022-09-01T10:27:38.761Z,17.96
2022-09-01T10:30:12.595Z,17.96
2022-09-01T10:32:50.768Z,17.98
2022-09-01T10:35:24.113Z,18.07
2022-09-01T10:37:51.441Z,18.03
2022-09-01T10:40:33.409Z,18.06
2022-09-01T10:43:21.001Z,18.18
2022-09-01T10:45:54.938Z,18.32
2022-09-01T10:48:36.624Z,18.30
2022-09-01T10:51:18.242Z,18.29
2022-09-01T10:53:52.144Z,18.37
2022-09-01T10:56:28.849Z,18.37
2022-09-01T11:01:52.904Z,18.45
2022-09-01T11:04:22.516Z,18.53
2022-09-01T11:09:43.369Z,18.54
2022-09-01T11:12:29.089Z,18.51
2022-09-01T11:14:56.391Z,18.59
2022-09-01T11:17:25.380Z,18.57
2022-09-01T11:19:58.116Z,18.55
2022-09-01T11:22:30.308Z,18.53
2022-09-01T11:25:02.485Z,18.56
2022-09-01T11:27:50.070Z,18.56
2022-09-01T11:30:18.176Z,18.58
2022-09-01T11:32:47.256Z,18.65
2022-09-01T11:35:21.737Z,18.66
2022-09-01T11:37:52.085Z,18.60
2022-09-01T11:40:36.988Z,18.43
2022-09-01T11:43:10.609Z,18.65
2022-09-01T11:45:54.228Z,18.68
2022-09-01T11:48:20.752Z,18.56
2022-09-01T11:50:56.670Z,18.77
2022-09-01T11:56:12.242Z,18.70
2022-09-01T11:58:41.816Z,18.72
2022-09-01T12:01:14.337Z,18.77
2022-09-01T12:03:41.218Z,18.78
2022-09-01T12:06:09.643Z,18.62
2022-09-01T12:08:40.872Z,18.69
2022-09-01T12:11:08.879Z,18.52
2022-09-01T12:13:36.174Z,18.65
2022-09-01T12:16:18.069Z,18.59
2022-09-01T12:18:47.490Z,18.66
2022-09-01T12:21:33.767Z,18.55
2022-09-01T12:24:12.387Z,18.72
2022-09-01T12:26:39.028Z,18.68
2022-09-01T12:29:07.339Z,18.70
2022-09-01T12:31:34.373Z,18.72
2022-09-01T12:34:04.596Z,18.79
2022-09-01T12:36:33.339Z,18.77
2022-09-01T12:39:18.055Z,18.79
2022-09-01T12:42:00.915Z,18.83
2022-09-01T12:44:34.494Z,18.77
2022-09-01T12:47:06.794Z,18.84
2022-09-01T12:49:50.257Z,18.81
2022-09-01T12:52:19.989Z,18.84
2022-09-01T12:54:47.491Z,18.83
2022-09-01T12:57:27.638Z,18.83
2022-09-01T13:00:06.027Z,18.87
2022-09-01T13:02:34.780Z,18.87
2022-09-01T13:05:19.895Z,18.87
2022-09-01T13:07:46.365Z,18.94
2022-09-01T13:10:12.844Z,18.92
2022-09-01T13:12:42.982Z,18.89
2022-09-01T13:15:09.896Z,18.87
2022-09-01T13:17:38.360Z,18.91
2022-09-01T13:20:07.988Z,18.87
2022-09-01T13:22:35.107Z,18.85
2022-09-01T13:25:02.267Z,18.83
2022-09-01T13:27:28.725Z,18.81
2022-09-01T13:29:55.767Z,18.81
2022-09-01T13:32:24.088Z,18.80
2022-09-01T13:34:52.117Z,18.84
2022-09-01T13:37:19.291Z,18.87
2022-09-01T13:39:47.177Z,18.82
2022-09-01T13:42:15.893Z,18.70
2022-09-01T13:44:42.476Z,18.77
2022-09-01T13:50:12.038Z,18.40
2022-09-01T13:52:47.266Z,17.92
2022-09-01T13:55:23.745Z,18.10
2022-09-01T13:57:53.879Z,18.18
2022-09-01T14:00:24.227Z,18.34
2022-09-01T14:02:52.976Z,18.37
2022-09-01T14:05:20.936Z,18.25
2022-09-01T14:07:48.818Z,18.28
2022-09-01T14:10:15.563Z,18.45
2022-09-01T14:12:42.216Z,18.44
2022-09-01T14:15:11.699Z,18.51
2022-09-01T14:17:39.870Z,18.57
2022-09-01T14:20:07.691Z,18.54
2022-09-01T14:22:38.321Z,18.58
2022-09-01T14:25:05.503Z,18.57
2022-09-01T14:27:31.934Z,18.56
2022-09-01T14:29:58.343Z,18.57
2022-09-01T14:32:26.675Z,18.55
2022-09-01T14:34:53.682Z,18.47
2022-09-01T14:37:21.305Z,18.58
2022-09-01T14:39:51.559Z,18.57
2022-09-01T14:44:45.945Z,18.53
2022-09-01T14:47:12.677Z,18.66
2022-09-01T14:49:46.678Z,18.73
2022-09-01T14:52:14.251Z,18.66
2022-09-01T14:54:42.392Z,18.69
2022-09-01T14:59:55.256Z,18.55
2022-09-01T15:02:21.977Z,18.59
2022-09-01T15:04:48.425Z,18.57
2022-09-01T15:07:15.226Z,18.55
2022-09-01T15:09:42.462Z,18.47
2022-09-01T15:12:09.515Z,18.41
2022-09-01T15:14:36.221Z,18.37
2022-09-01T15:17:02.683Z,18.34
2022-09-01T15:19:29.137Z,18.27
2022-09-01T15:21:56.107Z,18.21
2022-09-01T15:24:23.143Z,18.20
2022-09-01T15:26:49.711Z,18.16
2022-09-01T15:29:16.040Z,18.21
2022-09-01T15:31:43.717Z,18.01
2022-09-01T15:34:11.028Z,17.91
2022-09-01T15:36:39.927Z,17.89
2022-09-01T15:39:08.010Z,17.92
2022-09-01T15:41:34.759Z,17.87
2022-09-01T15:44:02.109Z,18.01
2022-09-01T15:46:32.647Z,17.95
2022-09-01T15:49:00.112Z,17.99
2022-09-01T15:51:35.151Z,18.00
2022-09-01T15:54:06.525Z,17.84
2022-09-01T15:56:33.312Z,17.87
2022-09-01T15:59:01.268Z,17.88
2022-09-01T16:01:29.485Z,17.90
2022-09-01T16:03:56.245Z,17.88
2022-09-01T16:06:23.357Z,17.87
2022-09-01T16:08:50.194Z,17.86
2022-09-01T16:11:16.617Z,17.87
2022-09-01T16:13:43.225Z,17.92
2022-09-01T16:16:30.792Z,17.93
2022-09-01T16:18:57.323Z,17.94
2022-09-01T16:21:42.435Z,17.90
2022-09-01T16:24:10.677Z,17.97
2022-09-01T16:26:37.684Z,17.93
2022-09-01T16:29:09.330Z,17.92
2022-09-01T16:31:38.835Z,17.94
2022-09-01T16:34:15.732Z,17.95
2022-09-01T16:36:42.076Z,17.93
2022-09-01T16:39:23.774Z,17.94
2022-09-01T16:41:53.208Z,17.92
2022-09-01T16:44:22.607Z,17.96
2022-09-01T16:46:53.019Z,17.87
2022-09-01T16:49:38.245Z,17.93
2022-09-01T16:52:05.567Z,17.88
2022-09-01T16:54:31.963Z,17.83
2022-09-01T16:57:21.634Z,17.87
2022-09-01T16:59:59.408Z,17.80
2022-09-01T17:02:44.221Z,17.74
2022-09-01T17:05:24.488Z,17.59
2022-09-01T17:08:07.589Z,17.57
2022-09-01T17:10:38.903Z,17.69
2022-09-01T17:13:20.093Z,17.62
2022-09-01T17:15:50.433Z,17.49
2022-09-01T17:18:22.490Z,17.49
2022-09-01T17:20:55.031Z,17.45
2022-09-01T17:23:28.522Z,17.56
2022-09-01T17:25:58.648Z,17.71
2022-09-01T17:28:47.195Z,17.48
2022-09-01T17:31:16.998Z,17.44
2022-09-01T17:33:43.426Z,17.56
2022-09-01T17:36:18.637Z,17.44
2022-09-01T17:39:07.712Z,17.29
2022-09-01T17:41:47.046Z,17.59
2022-09-01T17:44:17.915Z,17.57
2022-09-01T17:46:49.743Z,17.53
2022-09-01T17:49:35.855Z,17.57
2022-09-01T17:52:15.174Z,17.37
2022-09-01T17:54:50.099Z,17.44
2022-09-01T17:57:16.441Z,17.35
2022-09-01T17:59:45.654Z,17.38
2022-09-01T18:02:21.327Z,17.38
2022-09-01T18:04:52.573Z,17.31
2022-09-01T18:07:34.291Z,17.22
2022-09-01T18:10:02.463Z,17.07
2022-09-01T18:12:30.927Z,17.19
2022-09-01T18:15:26.781Z,17.07
2022-09-01T18:18:11.649Z,17.00
2022-09-01T18:20:46.411Z,17.00
2022-09-01T18:23:15.730Z,16.94
2022-09-01T18:25:48.074Z,16.90
2022-09-01T18:28:15.141Z,16.81
2022-09-01T18:31:04.710Z,16.84
2022-09-01T18:33:49.320Z,16.77
2022-09-01T18:36:24.849Z,16.74
2022-09-01T18:38:57.842Z,16.67
2022-09-01T18:41:35.219Z,16.63
2022-09-01T18:44:10.659Z,16.55
2022-09-01T18:46:53.439Z,16.48
2022-09-01T18:49:32.315Z,16.40
2022-09-01T18:52:06.817Z,15.97
2022-09-01T18:54:36.527Z,16.21
2022-09-01T18:57:06.961Z,16.18
2022-09-01T18:59:36.956Z,16.01
2022-09-01T19:02:22.492Z,15.89
2022-09-01T19:04:52.701Z,15.66
2022-09-01T19:07:22.103Z,15.81
2022-09-01T19:10:03.838Z,15.85
2022-09-01T19:12:33.295Z,16.01
2022-09-01T19:15:16.935Z,16.06
2022-09-01T19:17:43.644Z,15.88
2022-09-01T19:20:15.191Z,15.36
2022-09-01T19:22:50.765Z,15.44
2022-09-01T19:25:34.049Z,15.50
2022-09-01T19:28:21.201Z,15.35
2022-09-01T19:30:50.777Z,15.50
2022-09-01T19:33:21.460Z,15.37
2022-09-01T19:35:49.057Z,15.29
2022-09-01T19:38:18.796Z,15.40
2022-09-01T19:40:48.067Z,15.56
2022-09-01T19:43:18.033Z,15.39
2022-09-01T19:45:45.971Z,15.28
2022-09-01T19:48:15.873Z,15.44
2022-09-01T19:50:56.750Z,15.58
2022-09-01T19:53:33.902Z,15.61
2022-09-01T19:56:15.837Z,15.70
2022-09-01T20:02:21.152Z,15.85
2022-09-01T20:04:57.089Z,15.83
2022-09-01T20:07:33.027Z,15.79
2022-09-01T20:10:18.190Z,15.98
2022-09-01T20:12:55.500Z,15.91
2022-09-01T20:15:28.625Z,15.82
2022-09-01T20:17:58.111Z,15.91
2022-09-01T20:20:27.541Z,15.84
2022-09-01T20:23:00.066Z,15.95
2022-09-01T20:25:29.354Z,15.95
2022-09-01T20:28:04.384Z,15.96
2022-09-01T20:30:40.059Z,15.90
2022-09-01T20:33:12.782Z,15.79
2022-09-01T20:35:41.850Z,15.85
2022-09-01T20:38:31.253Z,15.67
2022-09-01T20:41:02.328Z,15.77
2022-09-01T20:43:31.929Z,15.73
2022-09-01T20:45:58.443Z,15.59
2022-09-01T20:48:26.501Z,15.54
2022-09-01T20:50:59.657Z,15.58
2022-09-01T20:53:44.893Z,15.35
2022-09-01T20:56:18.436Z,15.43
2022-09-01T20:58:46.050Z,15.29
2022-09-01T21:01:17.976Z,15.33
2022-09-01T21:03:55.900Z,15.00
2022-09-01T21:06:41.532Z,15.07
2022-09-01T21:09:33.531Z,15.08
2022-09-01T21:12:02.622Z,15.14
2022-09-01T21:14:38.037Z,15.03
2022-09-01T21:17:26.617Z,14.92
2022-09-01T21:19:55.789Z,14.93
2022-09-01T21:22:22.657Z,14.90
2022-09-01T21:24:49.168Z,14.91
2022-09-01T21:27:17.786Z,14.77
2022-09-01T21:29:50.108Z,14.85
2022-09-01T21:32:16.949Z,14.71
2022-09-01T21:34:43.996Z,14.58
2022-09-01T21:37:10.469Z,14.58
2022-09-01T21:39:36.914Z,14.38
2022-09-01T21:42:04.052Z,14.48
2022-09-01T21:44:31.128Z,14.75
2022-09-01T21:46:57.891Z,14.69
2022-09-01T21:49:24.651Z,14.78
2022-09-01T21:51:51.145Z,14.91
2022-09-01T21:54:17.517Z,15.00
2022-09-01T21:56:43.852Z,15.08
2022-09-01T21:59:16.932Z,15.15
2022-09-01T22:01:43.808Z,15.04
2022-09-01T22:04:10.352Z,15.14
2022-09-01T22:06:38.560Z,15.17
2022-09-01T22:09:20.726Z,15.16
2022-09-01T22:11:48.005Z,15.11
2022-09-01T22:14:14.419Z,15.03
2022-09-01T22:16:40.983Z,15.08
2022-09-01T22:19:07.379Z,15.11
2022-09-01T22:21:35.232Z,14.91
2022-09-01T22:24:01.649Z,14.94
2022-09-01T22:26:29.152Z,14.88
2022-09-01T22:28:56.165Z,14.79
2022-09-01T22:31:23.558Z,14.78
2022-09-01T22:33:50.667Z,14.83
2022-09-01T22:36:24.395Z,14.77
2022-09-01T22:38:50.928Z,14.66
2022-09-01T22:41:20.971Z,14.75
2022-09-01T22:43:47.973Z,14.70
2022-09-01T22:46:15.477Z,14.67
2022-09-01T22:48:46.136Z,14.51
2022-09-01T22:51:13.083Z,14.30
2022-09-01T22:53:42.186Z,14.20
2022-09-01T22:56:28.313Z,14.16
2022-09-01T22:58:55.755Z,14.29
2022-09-01T23:01:23.969Z,14.32
2022-09-01T23:03:52.023Z,14.18
2022-09-01T23:06:21.823Z,14.01
2022-09-01T23:08:54.825Z,14.23
2022-09-01T23:11:21.689Z,14.24
2022-09-01T23:13:48.060Z,14.25
2022-09-01T23:16:14.968Z,14.20
2022-09-01T23:18:43.343Z,14.09
2022-09-01T23:21:11.501Z,14.20
2022-09-01T23:23:38.330Z,13.94
2022-09-01T23:26:06.406Z,13.84
2022-09-01T23:28:32.954Z,14.01
2022-09-01T23:30:59.363Z,14.00
2022-09-01T23:33:26.404Z,13.95
2022-09-01T23:35:55.240Z,14.06
2022-09-01T23:38:23.109Z,13.96
2022-09-01T23:40:51.438Z,14.18
2022-09-01T23:43:19.108Z,14.22
2022-09-01T23:45:47.800Z,14.14
2022-09-01T23:48:14.960Z,14.26
2022-09-01T23:50:50.781Z,14.25
2022-09-01T23:53:17.891Z,14.35
2022-09-01T23:55:45.973Z,14.36
2022-09-01T23:58:12.939Z,14.42
